sensor_id;sensor_type;location;lat;lon;timestamp;P1;durP1;ratioP1;P2;durP2;ratioP2
11921;SDS011;6021;51.182;3.160;2023-08-07T00:00:06;4.33;;;2.03;;
11921;SDS011;6021;51.182;3.160;2023-08-07T00:02:38;4.03;;;1.90;;
11921;SDS011;6021;51.182;3.160;2023-08-07T00:05:06;3.83;;;1.80;;
11921;SDS011;6021;51.182;3.160;2023-08-07T00:07:35;6.77;;;2.10;;
11921;SDS011;6021;51.182;3.160;2023-08-07T00:10:03;3.90;;;1.90;;
11921;SDS011;6021;51.182;3.160;2023-08-07T00:12:32;6.77;;;2.43;;
11921;SDS011;6021;51.182;3.160;2023-08-07T00:15:01;5.07;;;2.07;;
11921;SDS011;6021;51.182;3.160;2023-08-07T00:17:31;6.07;;;2.10;;
11921;SDS011;6021;51.182;3.160;2023-08-07T00:20:00;4.50;;;2.20;;
11921;SDS011;6021;51.182;3.160;2023-08-07T00:22:28;5.03;;;2.20;;
11921;SDS011;6021;51.182;3.160;2023-08-07T00:24:57;5.20;;;2.30;;
11921;SDS011;6021;51.182;3.160;2023-08-07T00:27:25;5.40;;;2.37;;
11921;SDS011;6021;51.182;3.160;2023-08-07T00:29:54;4.20;;;2.10;;
11921;SDS011;6021;51.182;3.160;2023-08-07T00:32:22;4.40;;;2.23;;
11921;SDS011;6021;51.182;3.160;2023-08-07T00:34:50;4.93;;;2.33;;
11921;SDS011;6021;51.182;3.160;2023-08-07T00:37:19;4.20;;;2.20;;
11921;SDS011;6021;51.182;3.160;2023-08-07T00:39:47;4.93;;;2.20;;
11921;SDS011;6021;51.182;3.160;2023-08-07T00:42:15;5.23;;;2.20;;
11921;SDS011;6021;51.182;3.160;2023-08-07T00:44:43;4.23;;;2.37;;
11921;SDS011;6021;51.182;3.160;2023-08-07T00:47:12;4.20;;;2.40;;
11921;SDS011;6021;51.182;3.160;2023-08-07T00:49:40;3.60;;;2.13;;
11921;SDS011;6021;51.182;3.160;2023-08-07T00:52:09;6.13;;;2.40;;
11921;SDS011;6021;51.182;3.160;2023-08-07T00:54:38;5.93;;;2.33;;
11921;SDS011;6021;51.182;3.160;2023-08-07T00:57:10;4.63;;;2.23;;
11921;SDS011;6021;51.182;3.160;2023-08-07T00:59:38;3.97;;;2.37;;
11921;SDS011;6021;51.182;3.160;2023-08-07T01:02:07;5.73;;;2.57;;
11921;SDS011;6021;51.182;3.160;2023-08-07T01:04:36;4.13;;;2.60;;
11921;SDS011;6021;51.182;3.160;2023-08-07T01:07:05;4.20;;;2.67;;
11921;SDS011;6021;51.182;3.160;2023-08-07T01:09:34;4.00;;;2.60;;
11921;SDS011;6021;51.182;3.160;2023-08-07T01:12:26;6.50;;;2.53;;
11921;SDS011;6021;51.182;3.160;2023-08-07T01:17:23;4.37;;;2.40;;
11921;SDS011;6021;51.182;3.160;2023-08-07T01:19:52;6.17;;;2.47;;
11921;SDS011;6021;51.182;3.160;2023-08-07T01:22:21;3.57;;;2.37;;
11921;SDS011;6021;51.182;3.160;2023-08-07T01:24:49;6.67;;;2.70;;
11921;SDS011;6021;51.182;3.160;2023-08-07T01:29:57;5.70;;;2.40;;
11921;SDS011;6021;51.182;3.160;2023-08-07T01:35:16;7.10;;;2.77;;
11921;SDS011;6021;51.182;3.160;2023-08-07T01:37:47;7.10;;;2.47;;
11921;SDS011;6021;51.182;3.160;2023-08-07T01:40:17;5.13;;;2.67;;
11921;SDS011;6021;51.182;3.160;2023-08-07T01:42:46;5.17;;;2.50;;
11921;SDS011;6021;51.182;3.160;2023-08-07T01:45:24;8.40;;;2.70;;
11921;SDS011;6021;51.182;3.160;2023-08-07T01:47:51;6.43;;;2.70;;
11921;SDS011;6021;51.182;3.160;2023-08-07T01:50:21;5.47;;;2.60;;
11921;SDS011;6021;51.182;3.160;2023-08-07T01:52:50;6.43;;;2.60;;
11921;SDS011;6021;51.182;3.160;2023-08-07T01:55:19;6.33;;;2.40;;
11921;SDS011;6021;51.182;3.160;2023-08-07T01:57:48;5.73;;;2.73;;
11921;SDS011;6021;51.182;3.160;2023-08-07T02:00:17;8.40;;;3.00;;
11921;SDS011;6021;51.182;3.160;2023-08-07T02:02:45;5.20;;;2.63;;
11921;SDS011;6021;51.182;3.160;2023-08-07T02:05:14;6.07;;;2.70;;
11921;SDS011;6021;51.182;3.160;2023-08-07T02:07:42;5.00;;;2.57;;
11921;SDS011;6021;51.182;3.160;2023-08-07T02:10:11;3.63;;;2.30;;
11921;SDS011;6021;51.182;3.160;2023-08-07T02:12:39;6.07;;;3.00;;
11921;SDS011;6021;51.182;3.160;2023-08-07T02:15:08;6.00;;;2.60;;
11921;SDS011;6021;51.182;3.160;2023-08-07T02:17:36;7.27;;;2.83;;
11921;SDS011;6021;51.182;3.160;2023-08-07T02:20:06;7.97;;;2.80;;
11921;SDS011;6021;51.182;3.160;2023-08-07T02:22:38;3.87;;;2.43;;
11921;SDS011;6021;51.182;3.160;2023-08-07T02:25:05;6.63;;;2.80;;
11921;SDS011;6021;51.182;3.160;2023-08-07T02:27:34;7.70;;;2.77;;
11921;SDS011;6021;51.182;3.160;2023-08-07T02:30:02;9.53;;;2.90;;
11921;SDS011;6021;51.182;3.160;2023-08-07T02:32:32;6.57;;;2.67;;
11921;SDS011;6021;51.182;3.160;2023-08-07T02:35:00;6.20;;;2.80;;
11921;SDS011;6021;51.182;3.160;2023-08-07T02:37:29;6.23;;;2.70;;
11921;SDS011;6021;51.182;3.160;2023-08-07T02:39:57;4.63;;;2.70;;
11921;SDS011;6021;51.182;3.160;2023-08-07T02:42:25;7.40;;;2.90;;
11921;SDS011;6021;51.182;3.160;2023-08-07T02:44:53;4.93;;;2.73;;
11921;SDS011;6021;51.182;3.160;2023-08-07T02:47:22;6.60;;;2.70;;
11921;SDS011;6021;51.182;3.160;2023-08-07T02:49:50;5.77;;;2.80;;
11921;SDS011;6021;51.182;3.160;2023-08-07T02:52:18;6.27;;;2.60;;
11921;SDS011;6021;51.182;3.160;2023-08-07T02:54:47;6.50;;;2.60;;
11921;SDS011;6021;51.182;3.160;2023-08-07T02:57:15;5.67;;;2.67;;
11921;SDS011;6021;51.182;3.160;2023-08-07T02:59:43;7.50;;;2.70;;
11921;SDS011;6021;51.182;3.160;2023-08-07T03:02:12;4.97;;;2.80;;
11921;SDS011;6021;51.182;3.160;2023-08-07T03:04:40;6.70;;;2.80;;
11921;SDS011;6021;51.182;3.160;2023-08-07T03:07:08;7.37;;;2.90;;
11921;SDS011;6021;51.182;3.160;2023-08-07T03:09:36;5.77;;;2.80;;
11921;SDS011;6021;51.182;3.160;2023-08-07T03:12:05;7.77;;;2.70;;
11921;SDS011;6021;51.182;3.160;2023-08-07T03:14:33;5.93;;;2.67;;
11921;SDS011;6021;51.182;3.160;2023-08-07T03:17:02;6.20;;;2.90;;
11921;SDS011;6021;51.182;3.160;2023-08-07T03:19:30;4.63;;;2.67;;
11921;SDS011;6021;51.182;3.160;2023-08-07T03:21:59;4.20;;;2.50;;
11921;SDS011;6021;51.182;3.160;2023-08-07T03:24:27;5.27;;;2.80;;
11921;SDS011;6021;51.182;3.160;2023-08-07T03:26:55;4.73;;;2.70;;
11921;SDS011;6021;51.182;3.160;2023-08-07T03:29:24;6.80;;;3.10;;
11921;SDS011;6021;51.182;3.160;2023-08-07T03:31:52;5.10;;;2.90;;
11921;SDS011;6021;51.182;3.160;2023-08-07T03:34:20;7.10;;;2.87;;
11921;SDS011;6021;51.182;3.160;2023-08-07T03:36:49;4.67;;;2.80;;
11921;SDS011;6021;51.182;3.160;2023-08-07T03:39:17;5.10;;;2.67;;
11921;SDS011;6021;51.182;3.160;2023-08-07T03:41:45;7.20;;;3.00;;
11921;SDS011;6021;51.182;3.160;2023-08-07T03:44:14;5.87;;;2.90;;
11921;SDS011;6021;51.182;3.160;2023-08-07T03:46:42;5.13;;;3.00;;
11921;SDS011;6021;51.182;3.160;2023-08-07T03:49:11;5.10;;;2.63;;
11921;SDS011;6021;51.182;3.160;2023-08-07T03:51:39;4.50;;;2.80;;
11921;SDS011;6021;51.182;3.160;2023-08-07T03:54:07;6.53;;;3.07;;
11921;SDS011;6021;51.182;3.160;2023-08-07T03:56:36;6.67;;;3.03;;
11921;SDS011;6021;51.182;3.160;2023-08-07T03:59:04;6.07;;;2.60;;
11921;SDS011;6021;51.182;3.160;2023-08-07T04:01:33;6.43;;;3.10;;
11921;SDS011;6021;51.182;3.160;2023-08-07T04:04:01;6.80;;;2.83;;
11921;SDS011;6021;51.182;3.160;2023-08-07T04:06:30;7.37;;;2.93;;
11921;SDS011;6021;51.182;3.160;2023-08-07T04:08:58;6.67;;;3.00;;
11921;SDS011;6021;51.182;3.160;2023-08-07T04:11:26;6.10;;;3.27;;
11921;SDS011;6021;51.182;3.160;2023-08-07T04:13:55;6.13;;;3.13;;
11921;SDS011;6021;51.182;3.160;2023-08-07T04:16:23;4.67;;;2.77;;
11921;SDS011;6021;51.182;3.160;2023-08-07T04:18:51;9.20;;;3.30;;
11921;SDS011;6021;51.182;3.160;2023-08-07T04:21:20;7.80;;;3.20;;
11921;SDS011;6021;51.182;3.160;2023-08-07T04:23:48;5.27;;;3.03;;
11921;SDS011;6021;51.182;3.160;2023-08-07T04:26:16;6.53;;;2.97;;
11921;SDS011;6021;51.182;3.160;2023-08-07T04:28:44;5.90;;;3.13;;
11921;SDS011;6021;51.182;3.160;2023-08-07T04:31:13;6.23;;;3.00;;
11921;SDS011;6021;51.182;3.160;2023-08-07T04:33:41;5.07;;;2.90;;
11921;SDS011;6021;51.182;3.160;2023-08-07T04:36:09;7.20;;;3.20;;
11921;SDS011;6021;51.182;3.160;2023-08-07T04:38:38;6.00;;;2.87;;
11921;SDS011;6021;51.182;3.160;2023-08-07T04:41:06;6.10;;;3.20;;
11921;SDS011;6021;51.182;3.160;2023-08-07T04:43:34;6.80;;;3.23;;
11921;SDS011;6021;51.182;3.160;2023-08-07T04:46:03;4.73;;;2.63;;
11921;SDS011;6021;51.182;3.160;2023-08-07T04:48:31;5.97;;;3.03;;
11921;SDS011;6021;51.182;3.160;2023-08-07T04:50:59;5.53;;;2.93;;
11921;SDS011;6021;51.182;3.160;2023-08-07T04:53:28;6.30;;;3.13;;
11921;SDS011;6021;51.182;3.160;2023-08-07T04:55:56;3.83;;;2.93;;
11921;SDS011;6021;51.182;3.160;2023-08-07T04:58:26;4.80;;;2.80;;
11921;SDS011;6021;51.182;3.160;2023-08-07T05:00:59;6.43;;;3.10;;
11921;SDS011;6021;51.182;3.160;2023-08-07T05:03:24;8.33;;;3.10;;
11921;SDS011;6021;51.182;3.160;2023-08-07T05:05:58;5.03;;;2.83;;
11921;SDS011;6021;51.182;3.160;2023-08-07T05:08:26;7.57;;;2.93;;
11921;SDS011;6021;51.182;3.160;2023-08-07T05:10:55;8.07;;;3.13;;
11921;SDS011;6021;51.182;3.160;2023-08-07T05:13:23;8.07;;;3.40;;
11921;SDS011;6021;51.182;3.160;2023-08-07T05:15:52;4.67;;;2.80;;
11921;SDS011;6021;51.182;3.160;2023-08-07T05:18:20;7.43;;;3.30;;
11921;SDS011;6021;51.182;3.160;2023-08-07T05:20:48;4.47;;;2.97;;
11921;SDS011;6021;51.182;3.160;2023-08-07T05:23:17;6.13;;;3.30;;
11921;SDS011;6021;51.182;3.160;2023-08-07T05:25:45;5.00;;;2.97;;
11921;SDS011;6021;51.182;3.160;2023-08-07T05:28:14;4.83;;;2.73;;
11921;SDS011;6021;51.182;3.160;2023-08-07T05:30:43;4.97;;;2.80;;
11921;SDS011;6021;51.182;3.160;2023-08-07T05:33:11;5.87;;;2.93;;
11921;SDS011;6021;51.182;3.160;2023-08-07T05:35:41;6.53;;;3.17;;
11921;SDS011;6021;51.182;3.160;2023-08-07T05:38:09;7.13;;;3.20;;
11921;SDS011;6021;51.182;3.160;2023-08-07T05:40:38;6.53;;;3.00;;
11921;SDS011;6021;51.182;3.160;2023-08-07T05:43:07;6.37;;;3.30;;
11921;SDS011;6021;51.182;3.160;2023-08-07T05:45:35;6.77;;;3.00;;
11921;SDS011;6021;51.182;3.160;2023-08-07T05:48:03;4.07;;;2.80;;
11921;SDS011;6021;51.182;3.160;2023-08-07T05:50:33;5.27;;;3.00;;
11921;SDS011;6021;51.182;3.160;2023-08-07T05:53:02;8.80;;;3.20;;
11921;SDS011;6021;51.182;3.160;2023-08-07T05:55:31;6.43;;;3.10;;
11921;SDS011;6021;51.182;3.160;2023-08-07T05:57:59;5.47;;;3.00;;
11921;SDS011;6021;51.182;3.160;2023-08-07T06:00:27;6.60;;;2.90;;
11921;SDS011;6021;51.182;3.160;2023-08-07T06:02:56;5.40;;;2.80;;
11921;SDS011;6021;51.182;3.160;2023-08-07T06:05:24;5.83;;;2.83;;
11921;SDS011;6021;51.182;3.160;2023-08-07T06:07:52;3.93;;;2.90;;
11921;SDS011;6021;51.182;3.160;2023-08-07T06:10:21;5.17;;;2.83;;
11921;SDS011;6021;51.182;3.160;2023-08-07T06:12:49;4.17;;;3.00;;
11921;SDS011;6021;51.182;3.160;2023-08-07T06:15:17;5.07;;;3.17;;
11921;SDS011;6021;51.182;3.160;2023-08-07T06:17:46;3.93;;;2.80;;
11921;SDS011;6021;51.182;3.160;2023-08-07T06:20:14;5.73;;;3.17;;
11921;SDS011;6021;51.182;3.160;2023-08-07T06:22:42;5.00;;;2.90;;
11921;SDS011;6021;51.182;3.160;2023-08-07T06:25:11;4.47;;;3.00;;
11921;SDS011;6021;51.182;3.160;2023-08-07T06:27:39;3.63;;;2.70;;
11921;SDS011;6021;51.182;3.160;2023-08-07T06:30:08;7.23;;;2.80;;
11921;SDS011;6021;51.182;3.160;2023-08-07T06:32:36;4.57;;;2.40;;
11921;SDS011;6021;51.182;3.160;2023-08-07T06:35:05;4.43;;;2.60;;
11921;SDS011;6021;51.182;3.160;2023-08-07T06:37:33;5.57;;;2.60;;
11921;SDS011;6021;51.182;3.160;2023-08-07T06:40:01;5.30;;;2.63;;
11921;SDS011;6021;51.182;3.160;2023-08-07T06:42:30;4.70;;;2.50;;
11921;SDS011;6021;51.182;3.160;2023-08-07T06:44:58;3.80;;;2.20;;
11921;SDS011;6021;51.182;3.160;2023-08-07T06:47:26;3.93;;;2.43;;
11921;SDS011;6021;51.182;3.160;2023-08-07T06:49:55;3.23;;;2.30;;
11921;SDS011;6021;51.182;3.160;2023-08-07T06:52:23;3.43;;;2.30;;
11921;SDS011;6021;51.182;3.160;2023-08-07T06:54:51;4.00;;;2.20;;
11921;SDS011;6021;51.182;3.160;2023-08-07T06:57:20;3.57;;;2.13;;
11921;SDS011;6021;51.182;3.160;2023-08-07T06:59:48;4.23;;;2.20;;
11921;SDS011;6021;51.182;3.160;2023-08-07T07:02:16;3.60;;;2.30;;
11921;SDS011;6021;51.182;3.160;2023-08-07T07:04:45;2.60;;;2.20;;
11921;SDS011;6021;51.182;3.160;2023-08-07T07:07:13;3.50;;;2.30;;
11921;SDS011;6021;51.182;3.160;2023-08-07T07:09:41;3.73;;;2.20;;
11921;SDS011;6021;51.182;3.160;2023-08-07T07:12:10;4.83;;;2.50;;
11921;SDS011;6021;51.182;3.160;2023-08-07T07:14:38;3.67;;;2.20;;
11921;SDS011;6021;51.182;3.160;2023-08-07T07:17:06;2.47;;;2.07;;
11921;SDS011;6021;51.182;3.160;2023-08-07T07:19:35;4.17;;;2.30;;
11921;SDS011;6021;51.182;3.160;2023-08-07T07:22:03;4.30;;;2.30;;
11921;SDS011;6021;51.182;3.160;2023-08-07T07:24:32;3.77;;;2.40;;
11921;SDS011;6021;51.182;3.160;2023-08-07T07:27:00;5.13;;;2.30;;
11921;SDS011;6021;51.182;3.160;2023-08-07T07:29:28;3.73;;;2.20;;
11921;SDS011;6021;51.182;3.160;2023-08-07T07:31:57;3.37;;;2.17;;
11921;SDS011;6021;51.182;3.160;2023-08-07T07:34:25;4.10;;;2.27;;
11921;SDS011;6021;51.182;3.160;2023-08-07T07:36:53;2.87;;;2.07;;
11921;SDS011;6021;51.182;3.160;2023-08-07T07:39:21;4.33;;;2.27;;
11921;SDS011;6021;51.182;3.160;2023-08-07T07:41:50;3.40;;;1.90;;
11921;SDS011;6021;51.182;3.160;2023-08-07T07:44:18;2.83;;;2.10;;
11921;SDS011;6021;51.182;3.160;2023-08-07T07:46:47;3.97;;;2.40;;
11921;SDS011;6021;51.182;3.160;2023-08-07T07:49:15;3.13;;;2.00;;
11921;SDS011;6021;51.182;3.160;2023-08-07T07:51:43;3.67;;;2.10;;
11921;SDS011;6021;51.182;3.160;2023-08-07T07:54:12;3.37;;;2.30;;
11921;SDS011;6021;51.182;3.160;2023-08-07T07:56:42;3.93;;;2.40;;
11921;SDS011;6021;51.182;3.160;2023-08-07T07:59:10;4.23;;;2.27;;
11921;SDS011;6021;51.182;3.160;2023-08-07T08:01:41;2.73;;;2.30;;
11921;SDS011;6021;51.182;3.160;2023-08-07T08:04:09;2.67;;;2.27;;
11921;SDS011;6021;51.182;3.160;2023-08-07T08:06:39;3.43;;;2.13;;
11921;SDS011;6021;51.182;3.160;2023-08-07T08:09:08;3.23;;;2.10;;
11921;SDS011;6021;51.182;3.160;2023-08-07T08:11:36;3.87;;;2.30;;
11921;SDS011;6021;51.182;3.160;2023-08-07T08:14:04;4.70;;;2.20;;
11921;SDS011;6021;51.182;3.160;2023-08-07T08:16:33;3.60;;;2.40;;
11921;SDS011;6021;51.182;3.160;2023-08-07T08:19:01;2.70;;;2.10;;
11921;SDS011;6021;51.182;3.160;2023-08-07T08:21:29;2.90;;;2.10;;
11921;SDS011;6021;51.182;3.160;2023-08-07T08:23:58;2.90;;;2.30;;
11921;SDS011;6021;51.182;3.160;2023-08-07T08:26:26;4.47;;;2.30;;
11921;SDS011;6021;51.182;3.160;2023-08-07T08:28:55;3.60;;;2.17;;
11921;SDS011;6021;51.182;3.160;2023-08-07T08:31:23;2.90;;;2.10;;
11921;SDS011;6021;51.182;3.160;2023-08-07T08:33:51;3.50;;;2.20;;
11921;SDS011;6021;51.182;3.160;2023-08-07T08:36:20;3.43;;;2.03;;
11921;SDS011;6021;51.182;3.160;2023-08-07T08:38:48;4.37;;;2.37;;
11921;SDS011;6021;51.182;3.160;2023-08-07T08:41:18;3.03;;;2.17;;
11921;SDS011;6021;51.182;3.160;2023-08-07T08:43:48;3.73;;;2.23;;
11921;SDS011;6021;51.182;3.160;2023-08-07T08:46:20;2.30;;;2.07;;
11921;SDS011;6021;51.182;3.160;2023-08-07T08:48:50;3.17;;;2.10;;
11921;SDS011;6021;51.182;3.160;2023-08-07T08:51:20;3.03;;;2.17;;
11921;SDS011;6021;51.182;3.160;2023-08-07T08:53:52;3.43;;;1.90;;
11921;SDS011;6021;51.182;3.160;2023-08-07T08:56:22;3.87;;;2.03;;
11921;SDS011;6021;51.182;3.160;2023-08-07T08:58:51;3.33;;;2.27;;
11921;SDS011;6021;51.182;3.160;2023-08-07T09:01:19;4.60;;;2.50;;
11921;SDS011;6021;51.182;3.160;2023-08-07T09:03:48;3.80;;;2.40;;
11921;SDS011;6021;51.182;3.160;2023-08-07T09:06:18;3.73;;;2.17;;
11921;SDS011;6021;51.182;3.160;2023-08-07T09:08:47;3.20;;;2.17;;
11921;SDS011;6021;51.182;3.160;2023-08-07T09:11:17;3.43;;;2.00;;
11921;SDS011;6021;51.182;3.160;2023-08-07T09:13:47;3.43;;;2.30;;
11921;SDS011;6021;51.182;3.160;2023-08-07T09:16:16;2.97;;;2.37;;
11921;SDS011;6021;51.182;3.160;2023-08-07T09:18:46;5.37;;;2.60;;
11921;SDS011;6021;51.182;3.160;2023-08-07T09:21:16;5.80;;;2.50;;
11921;SDS011;6021;51.182;3.160;2023-08-07T09:23:45;3.00;;;2.67;;
11921;SDS011;6021;51.182;3.160;2023-08-07T09:26:15;3.07;;;2.27;;
11921;SDS011;6021;51.182;3.160;2023-08-07T09:28:45;4.50;;;2.40;;
11921;SDS011;6021;51.182;3.160;2023-08-07T09:31:16;3.40;;;2.40;;
11921;SDS011;6021;51.182;3.160;2023-08-07T09:33:46;3.90;;;2.40;;
11921;SDS011;6021;51.182;3.160;2023-08-07T09:36:18;3.27;;;2.40;;
11921;SDS011;6021;51.182;3.160;2023-08-07T09:38:49;2.33;;;2.13;;
11921;SDS011;6021;51.182;3.160;2023-08-07T09:41:18;4.23;;;2.50;;
11921;SDS011;6021;51.182;3.160;2023-08-07T09:43:46;2.73;;;2.40;;
11921;SDS011;6021;51.182;3.160;2023-08-07T09:46:15;3.53;;;2.40;;
11921;SDS011;6021;51.182;3.160;2023-08-07T09:48:45;2.90;;;2.37;;
11921;SDS011;6021;51.182;3.160;2023-08-07T09:51:14;3.60;;;2.20;;
11921;SDS011;6021;51.182;3.160;2023-08-07T09:53:43;4.17;;;2.60;;
11921;SDS011;6021;51.182;3.160;2023-08-07T09:56:11;3.87;;;2.40;;
11921;SDS011;6021;51.182;3.160;2023-08-07T09:58:43;4.23;;;2.30;;
11921;SDS011;6021;51.182;3.160;2023-08-07T10:01:12;3.20;;;2.40;;
11921;SDS011;6021;51.182;3.160;2023-08-07T10:03:41;3.30;;;2.27;;
11921;SDS011;6021;51.182;3.160;2023-08-07T10:06:10;4.40;;;2.40;;
11921;SDS011;6021;51.182;3.160;2023-08-07T10:08:40;4.10;;;2.07;;
11921;SDS011;6021;51.182;3.160;2023-08-07T10:11:11;2.60;;;2.20;;
11921;SDS011;6021;51.182;3.160;2023-08-07T10:13:40;4.13;;;2.40;;
11921;SDS011;6021;51.182;3.160;2023-08-07T10:16:09;3.80;;;2.10;;
11921;SDS011;6021;51.182;3.160;2023-08-07T10:18:38;3.10;;;2.00;;
11921;SDS011;6021;51.182;3.160;2023-08-07T10:21:07;3.43;;;2.20;;
11921;SDS011;6021;51.182;3.160;2023-08-07T10:23:35;3.77;;;1.80;;
11921;SDS011;6021;51.182;3.160;2023-08-07T10:26:06;2.80;;;1.70;;
11921;SDS011;6021;51.182;3.160;2023-08-07T10:28:37;3.63;;;1.90;;
11921;SDS011;6021;51.182;3.160;2023-08-07T10:31:07;2.37;;;1.70;;
11921;SDS011;6021;51.182;3.160;2023-08-07T10:33:38;2.50;;;1.70;;
11921;SDS011;6021;51.182;3.160;2023-08-07T10:36:08;2.63;;;1.70;;
11921;SDS011;6021;51.182;3.160;2023-08-07T10:38:37;2.90;;;1.70;;
11921;SDS011;6021;51.182;3.160;2023-08-07T10:41:06;2.47;;;1.60;;
11921;SDS011;6021;51.182;3.160;2023-08-07T10:43:39;2.00;;;1.53;;
11921;SDS011;6021;51.182;3.160;2023-08-07T10:46:15;1.53;;;1.43;;
11921;SDS011;6021;51.182;3.160;2023-08-07T10:48:45;2.10;;;1.83;;
11921;SDS011;6021;51.182;3.160;2023-08-07T10:51:15;2.37;;;1.70;;
11921;SDS011;6021;51.182;3.160;2023-08-07T10:53:47;1.83;;;1.50;;
11921;SDS011;6021;51.182;3.160;2023-08-07T10:56:18;2.20;;;1.70;;
11921;SDS011;6021;51.182;3.160;2023-08-07T10:58:58;3.13;;;1.80;;
11921;SDS011;6021;51.182;3.160;2023-08-07T11:04:00;2.50;;;1.63;;
11921;SDS011;6021;51.182;3.160;2023-08-07T11:06:36;2.93;;;1.87;;
11921;SDS011;6021;51.182;3.160;2023-08-07T11:09:06;3.63;;;1.53;;
11921;SDS011;6021;51.182;3.160;2023-08-07T11:11:42;5.10;;;1.70;;
11921;SDS011;6021;51.182;3.160;2023-08-07T11:14:13;2.87;;;1.70;;
11921;SDS011;6021;51.182;3.160;2023-08-07T11:16:43;2.40;;;1.80;;
11921;SDS011;6021;51.182;3.160;2023-08-07T11:19:18;3.63;;;1.70;;
11921;SDS011;6021;51.182;3.160;2023-08-07T11:21:43;3.33;;;1.80;;
11921;SDS011;6021;51.182;3.160;2023-08-07T11:24:12;3.27;;;1.87;;
11921;SDS011;6021;51.182;3.160;2023-08-07T11:26:42;2.23;;;1.57;;
11921;SDS011;6021;51.182;3.160;2023-08-07T11:29:17;2.13;;;1.50;;
11921;SDS011;6021;51.182;3.160;2023-08-07T11:31:45;2.80;;;1.60;;
11921;SDS011;6021;51.182;3.160;2023-08-07T11:34:15;2.97;;;1.70;;
11921;SDS011;6021;51.182;3.160;2023-08-07T11:36:47;3.97;;;1.70;;
11921;SDS011;6021;51.182;3.160;2023-08-07T11:39:16;3.43;;;1.93;;
11921;SDS011;6021;51.182;3.160;2023-08-07T11:41:46;2.07;;;1.60;;
11921;SDS011;6021;51.182;3.160;2023-08-07T11:44:14;3.07;;;1.87;;
11921;SDS011;6021;51.182;3.160;2023-08-07T11:46:43;2.47;;;1.70;;
11921;SDS011;6021;51.182;3.160;2023-08-07T11:49:12;2.93;;;1.70;;
11921;SDS011;6021;51.182;3.160;2023-08-07T11:51:40;2.50;;;1.80;;
11921;SDS011;6021;51.182;3.160;2023-08-07T11:54:13;2.17;;;1.50;;
11921;SDS011;6021;51.182;3.160;2023-08-07T11:56:40;2.77;;;1.50;;
11921;SDS011;6021;51.182;3.160;2023-08-07T11:59:09;3.33;;;1.57;;
11921;SDS011;6021;51.182;3.160;2023-08-07T12:01:38;3.77;;;1.60;;
11921;SDS011;6021;51.182;3.160;2023-08-07T12:06:37;2.27;;;1.70;;
11921;SDS011;6021;51.182;3.160;2023-08-07T12:09:06;3.83;;;1.50;;
11921;SDS011;6021;51.182;3.160;2023-08-07T12:11:38;1.77;;;1.30;;
11921;SDS011;6021;51.182;3.160;2023-08-07T12:14:07;1.57;;;1.30;;
11921;SDS011;6021;51.182;3.160;2023-08-07T12:16:36;2.97;;;1.50;;
11921;SDS011;6021;51.182;3.160;2023-08-07T12:19:04;3.80;;;1.70;;
11921;SDS011;6021;51.182;3.160;2023-08-07T12:21:33;2.63;;;1.67;;
11921;SDS011;6021;51.182;3.160;2023-08-07T12:24:01;3.63;;;1.40;;
11921;SDS011;6021;51.182;3.160;2023-08-07T12:26:30;2.73;;;1.60;;
11921;SDS011;6021;51.182;3.160;2023-08-07T12:28:58;2.17;;;1.33;;
11921;SDS011;6021;51.182;3.160;2023-08-07T12:31:26;2.87;;;1.53;;
11921;SDS011;6021;51.182;3.160;2023-08-07T12:33:55;2.40;;;1.47;;
11921;SDS011;6021;51.182;3.160;2023-08-07T12:36:23;3.20;;;1.43;;
11921;SDS011;6021;51.182;3.160;2023-08-07T12:38:51;1.43;;;1.20;;
11921;SDS011;6021;51.182;3.160;2023-08-07T12:41:19;2.53;;;1.40;;
11921;SDS011;6021;51.182;3.160;2023-08-07T12:43:48;4.50;;;1.43;;
11921;SDS011;6021;51.182;3.160;2023-08-07T12:46:16;2.07;;;1.40;;
11921;SDS011;6021;51.182;3.160;2023-08-07T12:48:44;1.73;;;1.50;;
11921;SDS011;6021;51.182;3.160;2023-08-07T12:51:13;1.87;;;1.40;;
11921;SDS011;6021;51.182;3.160;2023-08-07T12:53:43;4.50;;;1.50;;
11921;SDS011;6021;51.182;3.160;2023-08-07T12:56:13;2.00;;;1.37;;
11921;SDS011;6021;51.182;3.160;2023-08-07T12:58:42;1.87;;;1.30;;
11921;SDS011;6021;51.182;3.160;2023-08-07T13:01:12;2.17;;;1.40;;
11921;SDS011;6021;51.182;3.160;2023-08-07T13:03:40;1.93;;;1.30;;
11921;SDS011;6021;51.182;3.160;2023-08-07T13:06:08;2.93;;;1.40;;
11921;SDS011;6021;51.182;3.160;2023-08-07T13:08:38;3.17;;;1.70;;
11921;SDS011;6021;51.182;3.160;2023-08-07T13:11:07;2.10;;;1.70;;
11921;SDS011;6021;51.182;3.160;2023-08-07T13:13:35;2.07;;;1.70;;
11921;SDS011;6021;51.182;3.160;2023-08-07T13:16:05;3.47;;;1.80;;
11921;SDS011;6021;51.182;3.160;2023-08-07T13:18:33;2.47;;;1.80;;
11921;SDS011;6021;51.182;3.160;2023-08-07T13:21:01;2.57;;;1.83;;
11921;SDS011;6021;51.182;3.160;2023-08-07T13:23:30;3.93;;;2.10;;
11921;SDS011;6021;51.182;3.160;2023-08-07T13:25:58;5.80;;;2.10;;
11921;SDS011;6021;51.182;3.160;2023-08-07T13:28:26;3.73;;;2.20;;
11921;SDS011;6021;51.182;3.160;2023-08-07T13:30:55;3.07;;;2.20;;
11921;SDS011;6021;51.182;3.160;2023-08-07T13:33:24;3.03;;;2.03;;
11921;SDS011;6021;51.182;3.160;2023-08-07T13:35:53;2.27;;;2.07;;
11921;SDS011;6021;51.182;3.160;2023-08-07T13:38:21;2.20;;;1.93;;
11921;SDS011;6021;51.182;3.160;2023-08-07T13:40:50;2.30;;;1.80;;
11921;SDS011;6021;51.182;3.160;2023-08-07T13:43:18;3.43;;;2.20;;
11921;SDS011;6021;51.182;3.160;2023-08-07T13:45:46;3.13;;;2.13;;
11921;SDS011;6021;51.182;3.160;2023-08-07T13:48:16;2.70;;;2.20;;
11921;SDS011;6021;51.182;3.160;2023-08-07T13:50:45;2.53;;;2.10;;
11921;SDS011;6021;51.182;3.160;2023-08-07T13:53:13;3.07;;;2.00;;
11921;SDS011;6021;51.182;3.160;2023-08-07T13:55:42;3.97;;;2.00;;
11921;SDS011;6021;51.182;3.160;2023-08-07T13:58:11;3.20;;;2.30;;
11921;SDS011;6021;51.182;3.160;2023-08-07T14:00:41;3.07;;;2.10;;
11921;SDS011;6021;51.182;3.160;2023-08-07T14:03:10;3.60;;;2.00;;
11921;SDS011;6021;51.182;3.160;2023-08-07T14:05:39;2.67;;;1.87;;
11921;SDS011;6021;51.182;3.160;2023-08-07T14:08:07;2.50;;;2.00;;
11921;SDS011;6021;51.182;3.160;2023-08-07T14:10:37;3.43;;;2.40;;
11921;SDS011;6021;51.182;3.160;2023-08-07T14:13:07;3.30;;;2.00;;
11921;SDS011;6021;51.182;3.160;2023-08-07T14:15:36;2.30;;;2.10;;
11921;SDS011;6021;51.182;3.160;2023-08-07T14:18:04;3.13;;;2.00;;
11921;SDS011;6021;51.182;3.160;2023-08-07T14:20:34;2.80;;;2.17;;
11921;SDS011;6021;51.182;3.160;2023-08-07T14:23:02;4.73;;;2.10;;
11921;SDS011;6021;51.182;3.160;2023-08-07T14:25:31;3.90;;;2.30;;
11921;SDS011;6021;51.182;3.160;2023-08-07T14:27:59;2.97;;;2.40;;
11921;SDS011;6021;51.182;3.160;2023-08-07T14:30:27;4.73;;;2.23;;
11921;SDS011;6021;51.182;3.160;2023-08-07T14:32:56;3.80;;;2.30;;
11921;SDS011;6021;51.182;3.160;2023-08-07T14:35:24;3.50;;;2.20;;
11921;SDS011;6021;51.182;3.160;2023-08-07T14:37:52;3.37;;;2.00;;
11921;SDS011;6021;51.182;3.160;2023-08-07T14:40:20;3.30;;;2.10;;
11921;SDS011;6021;51.182;3.160;2023-08-07T14:42:49;3.53;;;2.10;;
11921;SDS011;6021;51.182;3.160;2023-08-07T14:45:18;4.03;;;2.07;;
11921;SDS011;6021;51.182;3.160;2023-08-07T14:47:47;4.77;;;2.30;;
11921;SDS011;6021;51.182;3.160;2023-08-07T14:50:15;2.27;;;1.90;;
11921;SDS011;6021;51.182;3.160;2023-08-07T14:52:43;5.60;;;2.10;;
11921;SDS011;6021;51.182;3.160;2023-08-07T14:55:12;4.50;;;2.13;;
11921;SDS011;6021;51.182;3.160;2023-08-07T14:57:40;4.13;;;2.10;;
11921;SDS011;6021;51.182;3.160;2023-08-07T15:00:08;4.17;;;1.87;;
11921;SDS011;6021;51.182;3.160;2023-08-07T15:02:37;5.10;;;2.00;;
11921;SDS011;6021;51.182;3.160;2023-08-07T15:05:07;4.53;;;1.90;;
11921;SDS011;6021;51.182;3.160;2023-08-07T15:07:35;4.00;;;1.90;;
11921;SDS011;6021;51.182;3.160;2023-08-07T15:10:04;3.83;;;1.90;;
11921;SDS011;6021;51.182;3.160;2023-08-07T15:12:33;3.60;;;1.80;;
11921;SDS011;6021;51.182;3.160;2023-08-07T15:15:01;2.77;;;1.90;;
11921;SDS011;6021;51.182;3.160;2023-08-07T15:17:32;3.80;;;1.70;;
11921;SDS011;6021;51.182;3.160;2023-08-07T15:20:00;1.90;;;1.50;;
11921;SDS011;6021;51.182;3.160;2023-08-07T15:22:29;2.70;;;1.50;;